sensor_id;sensor_type;location;lat;lon;timestamp;P1;durP1;ratioP1;P2;durP2;ratioP2
21046;SDS011;10682;50.874;3.656;2023-02-01T00:00:38;25.60;;;5.00;;
21046;SDS011;10682;50.874;3.656;2023-02-01T00:03:05;20.63;;;5.60;;
21046;SDS011;10682;50.874;3.656;2023-02-01T00:05:34;24.40;;;5.77;;
21046;SDS011;10682;50.874;3.656;2023-02-01T00:08:01;27.43;;;5.63;;
21046;SDS011;10682;50.874;3.656;2023-02-01T00:10:29;30.87;;;6.47;;
21046;SDS011;10682;50.874;3.656;2023-02-01T00:12:56;26.07;;;6.23;;
21046;SDS011;10682;50.874;3.656;2023-02-01T00:15:25;26.17;;;5.77;;
21046;SDS011;10682;50.874;3.656;2023-02-01T00:17:53;24.87;;;5.93;;
21046;SDS011;10682;50.874;3.656;2023-02-01T00:20:21;19.07;;;5.73;;
21046;SDS011;10682;50.874;3.656;2023-02-01T00:22:57;32.23;;;5.87;;
21046;SDS011;10682;50.874;3.656;2023-02-01T00:25:25;27.27;;;5.70;;
21046;SDS011;10682;50.874;3.656;2023-02-01T00:27:52;29.60;;;5.80;;
21046;SDS011;10682;50.874;3.656;2023-02-01T00:30:19;22.73;;;5.80;;
21046;SDS011;10682;50.874;3.656;2023-02-01T00:32:46;27.83;;;5.73;;
21046;SDS011;10682;50.874;3.656;2023-02-01T00:35:13;30.40;;;5.47;;
21046;SDS011;10682;50.874;3.656;2023-02-01T00:37:40;30.07;;;5.13;;
21046;SDS011;10682;50.874;3.656;2023-02-01T00:40:08;22.53;;;4.70;;
21046;SDS011;10682;50.874;3.656;2023-02-01T00:42:35;30.13;;;4.97;;
21046;SDS011;10682;50.874;3.656;2023-02-01T00:45:03;26.57;;;5.00;;
21046;SDS011;10682;50.874;3.656;2023-02-01T00:47:30;22.73;;;4.70;;
21046;SDS011;10682;50.874;3.656;2023-02-01T00:49:58;26.20;;;5.77;;
21046;SDS011;10682;50.874;3.656;2023-02-01T00:52:25;22.00;;;4.60;;
21046;SDS011;10682;50.874;3.656;2023-02-01T00:54:52;23.87;;;5.23;;
21046;SDS011;10682;50.874;3.656;2023-02-01T00:57:19;24.10;;;5.10;;
21046;SDS011;10682;50.874;3.656;2023-02-01T00:59:47;23.80;;;4.87;;
21046;SDS011;10682;50.874;3.656;2023-02-01T01:02:14;25.33;;;5.30;;
21046;SDS011;10682;50.874;3.656;2023-02-01T01:04:41;21.10;;;4.63;;
21046;SDS011;10682;50.874;3.656;2023-02-01T01:07:10;24.77;;;5.27;;
21046;SDS011;10682;50.874;3.656;2023-02-01T01:09:37;22.87;;;4.70;;
21046;SDS011;10682;50.874;3.656;2023-02-01T01:12:05;22.53;;;4.87;;
21046;SDS011;10682;50.874;3.656;2023-02-01T01:14:32;30.37;;;5.40;;
21046;SDS011;10682;50.874;3.656;2023-02-01T01:16:59;29.73;;;5.30;;
21046;SDS011;10682;50.874;3.656;2023-02-01T01:19:26;21.37;;;4.73;;
21046;SDS011;10682;50.874;3.656;2023-02-01T01:21:53;27.67;;;4.93;;
21046;SDS011;10682;50.874;3.656;2023-02-01T01:24:22;29.90;;;4.87;;
21046;SDS011;10682;50.874;3.656;2023-02-01T01:26:49;30.37;;;6.13;;
21046;SDS011;10682;50.874;3.656;2023-02-01T01:29:16;22.23;;;5.70;;
21046;SDS011;10682;50.874;3.656;2023-02-01T01:31:43;23.83;;;4.80;;
21046;SDS011;10682;50.874;3.656;2023-02-01T01:34:10;31.53;;;5.20;;
21046;SDS011;10682;50.874;3.656;2023-02-01T01:36:41;20.57;;;4.90;;
21046;SDS011;10682;50.874;3.656;2023-02-01T01:39:08;20.30;;;4.90;;
21046;SDS011;10682;50.874;3.656;2023-02-01T01:41:36;28.80;;;4.90;;
21046;SDS011;10682;50.874;3.656;2023-02-01T01:44:04;26.47;;;5.20;;
21046;SDS011;10682;50.874;3.656;2023-02-01T01:46:53;20.90;;;4.73;;
21046;SDS011;10682;50.874;3.656;2023-02-01T01:49:22;25.33;;;4.80;;
21046;SDS011;10682;50.874;3.656;2023-02-01T01:51:53;19.30;;;4.00;;
21046;SDS011;10682;50.874;3.656;2023-02-01T01:57:18;21.83;;;4.63;;
21046;SDS011;10682;50.874;3.656;2023-02-01T01:59:54;30.37;;;4.63;;
21046;SDS011;10682;50.874;3.656;2023-02-01T02:02:38;23.77;;;4.03;;
21046;SDS011;10682;50.874;3.656;2023-02-01T02:05:16;21.57;;;4.27;;
21046;SDS011;10682;50.874;3.656;2023-02-01T02:07:46;26.60;;;4.73;;
21046;SDS011;10682;50.874;3.656;2023-02-01T02:10:15;24.13;;;4.60;;
21046;SDS011;10682;50.874;3.656;2023-02-01T02:12:49;24.07;;;4.50;;
21046;SDS011;10682;50.874;3.656;2023-02-01T02:15:16;23.27;;;4.10;;
21046;SDS011;10682;50.874;3.656;2023-02-01T02:27:05;28.83;;;4.47;;
21046;SDS011;10682;50.874;3.656;2023-02-01T02:39:07;25.67;;;4.40;;
21046;SDS011;10682;50.874;3.656;2023-02-01T02:42:17;28.47;;;4.53;;
21046;SDS011;10682;50.874;3.656;2023-02-01T02:49:15;17.23;;;4.10;;
21046;SDS011;10682;50.874;3.656;2023-02-01T02:52:05;22.47;;;4.23;;
21046;SDS011;10682;50.874;3.656;2023-02-01T02:54:59;26.03;;;4.70;;
21046;SDS011;10682;50.874;3.656;2023-02-01T02:57:36;27.70;;;4.97;;
21046;SDS011;10682;50.874;3.656;2023-02-01T03:00:27;32.47;;;4.67;;
21046;SDS011;10682;50.874;3.656;2023-02-01T03:03:16;32.73;;;5.13;;
21046;SDS011;10682;50.874;3.656;2023-02-01T03:06:02;28.73;;;4.67;;
21046;SDS011;10682;50.874;3.656;2023-02-01T03:08:30;23.90;;;4.33;;
21046;SDS011;10682;50.874;3.656;2023-02-01T03:16:32;27.50;;;3.83;;
21046;SDS011;10682;50.874;3.656;2023-02-01T03:19:29;29.30;;;4.50;;
21046;SDS011;10682;50.874;3.656;2023-02-01T03:24:56;29.07;;;4.03;;
21046;SDS011;10682;50.874;3.656;2023-02-01T03:28:21;29.50;;;3.87;;
21046;SDS011;10682;50.874;3.656;2023-02-01T03:30:40;27.13;;;3.60;;
21046;SDS011;10682;50.874;3.656;2023-02-01T03:33:11;23.13;;;3.77;;
21046;SDS011;10682;50.874;3.656;2023-02-01T03:41:43;37.03;;;4.33;;
21046;SDS011;10682;50.874;3.656;2023-02-01T03:46:54;29.63;;;4.30;;
21046;SDS011;10682;50.874;3.656;2023-02-01T03:49:42;17.70;;;3.90;;
21046;SDS011;10682;50.874;3.656;2023-02-01T03:52:17;28.60;;;4.20;;
21046;SDS011;10682;50.874;3.656;2023-02-01T03:54:51;25.77;;;4.00;;
21046;SDS011;10682;50.874;3.656;2023-02-01T03:57:21;30.10;;;4.20;;
21046;SDS011;10682;50.874;3.656;2023-02-01T04:00:03;32.50;;;4.20;;
21046;SDS011;10682;50.874;3.656;2023-02-01T04:02:33;29.43;;;4.43;;
21046;SDS011;10682;50.874;3.656;2023-02-01T04:05:01;35.17;;;3.57;;
21046;SDS011;10682;50.874;3.656;2023-02-01T04:07:28;30.60;;;4.07;;
21046;SDS011;10682;50.874;3.656;2023-02-01T04:09:55;22.50;;;3.80;;
21046;SDS011;10682;50.874;3.656;2023-02-01T04:12:22;27.73;;;3.93;;
21046;SDS011;10682;50.874;3.656;2023-02-01T04:14:50;23.33;;;3.87;;
21046;SDS011;10682;50.874;3.656;2023-02-01T04:17:17;24.93;;;4.70;;
21046;SDS011;10682;50.874;3.656;2023-02-01T04:19:44;28.80;;;4.10;;
21046;SDS011;10682;50.874;3.656;2023-02-01T04:22:20;29.40;;;4.53;;
21046;SDS011;10682;50.874;3.656;2023-02-01T04:24:47;28.87;;;3.90;;
21046;SDS011;10682;50.874;3.656;2023-02-01T04:27:14;27.40;;;3.97;;
21046;SDS011;10682;50.874;3.656;2023-02-01T04:29:41;21.70;;;3.60;;
21046;SDS011;10682;50.874;3.656;2023-02-01T04:32:08;26.07;;;3.73;;
21046;SDS011;10682;50.874;3.656;2023-02-01T04:34:35;27.07;;;4.47;;
21046;SDS011;10682;50.874;3.656;2023-02-01T04:37:03;27.07;;;3.90;;
21046;SDS011;10682;50.874;3.656;2023-02-01T04:39:30;26.03;;;3.97;;
21046;SDS011;10682;50.874;3.656;2023-02-01T04:41:57;28.83;;;4.80;;
21046;SDS011;10682;50.874;3.656;2023-02-01T04:44:24;20.90;;;3.53;;
21046;SDS011;10682;50.874;3.656;2023-02-01T04:46:51;24.30;;;4.87;;
21046;SDS011;10682;50.874;3.656;2023-02-01T04:49:18;26.33;;;3.63;;
21046;SDS011;10682;50.874;3.656;2023-02-01T04:51:47;29.50;;;4.13;;
21046;SDS011;10682;50.874;3.656;2023-02-01T04:54:14;17.53;;;3.53;;
21046;SDS011;10682;50.874;3.656;2023-02-01T04:56:41;34.73;;;4.13;;
21046;SDS011;10682;50.874;3.656;2023-02-01T04:59:11;27.67;;;4.23;;
21046;SDS011;10682;50.874;3.656;2023-02-01T05:01:39;20.17;;;4.30;;
21046;SDS011;10682;50.874;3.656;2023-02-01T05:04:06;27.17;;;3.40;;
21046;SDS011;10682;50.874;3.656;2023-02-01T05:06:33;25.10;;;3.63;;
21046;SDS011;10682;50.874;3.656;2023-02-01T05:09:00;32.87;;;4.00;;
21046;SDS011;10682;50.874;3.656;2023-02-01T05:14:18;21.97;;;4.60;;
21046;SDS011;10682;50.874;3.656;2023-02-01T05:16:45;28.97;;;4.50;;
21046;SDS011;10682;50.874;3.656;2023-02-01T05:19:12;20.80;;;3.60;;
21046;SDS011;10682;50.874;3.656;2023-02-01T05:21:39;31.33;;;3.20;;
21046;SDS011;10682;50.874;3.656;2023-02-01T05:24:07;27.93;;;4.27;;
21046;SDS011;10682;50.874;3.656;2023-02-01T05:26:46;22.23;;;3.57;;
21046;SDS011;10682;50.874;3.656;2023-02-01T05:29:15;31.73;;;4.60;;
21046;SDS011;10682;50.874;3.656;2023-02-01T05:31:44;15.27;;;4.80;;
21046;SDS011;10682;50.874;3.656;2023-02-01T05:34:13;23.40;;;3.83;;
21046;SDS011;10682;50.874;3.656;2023-02-01T05:36:41;28.40;;;4.37;;
21046;SDS011;10682;50.874;3.656;2023-02-01T05:39:08;28.00;;;4.73;;
21046;SDS011;10682;50.874;3.656;2023-02-01T05:41:36;28.70;;;4.40;;
21046;SDS011;10682;50.874;3.656;2023-02-01T05:44:04;20.53;;;3.70;;
21046;SDS011;10682;50.874;3.656;2023-02-01T05:46:34;25.60;;;4.07;;
21046;SDS011;10682;50.874;3.656;2023-02-01T05:49:02;27.03;;;3.83;;
21046;SDS011;10682;50.874;3.656;2023-02-01T05:51:30;26.10;;;3.80;;
21046;SDS011;10682;50.874;3.656;2023-02-01T05:53:57;24.10;;;3.93;;
21046;SDS011;10682;50.874;3.656;2023-02-01T05:56:24;28.23;;;4.23;;
21046;SDS011;10682;50.874;3.656;2023-02-01T05:58:51;26.97;;;4.03;;
21046;SDS011;10682;50.874;3.656;2023-02-01T06:01:18;23.80;;;4.10;;
21046;SDS011;10682;50.874;3.656;2023-02-01T06:03:46;25.47;;;4.40;;
21046;SDS011;10682;50.874;3.656;2023-02-01T06:06:13;36.73;;;4.43;;
21046;SDS011;10682;50.874;3.656;2023-02-01T06:08:40;27.03;;;4.23;;
21046;SDS011;10682;50.874;3.656;2023-02-01T06:11:07;25.47;;;4.10;;
21046;SDS011;10682;50.874;3.656;2023-02-01T06:13:36;23.47;;;4.47;;
21046;SDS011;10682;50.874;3.656;2023-02-01T06:16:04;30.17;;;4.03;;
21046;SDS011;10682;50.874;3.656;2023-02-01T06:18:34;26.53;;;5.03;;
21046;SDS011;10682;50.874;3.656;2023-02-01T06:21:02;25.07;;;3.87;;
21046;SDS011;10682;50.874;3.656;2023-02-01T06:23:29;30.17;;;5.03;;
21046;SDS011;10682;50.874;3.656;2023-02-01T06:26:01;34.93;;;4.73;;
21046;SDS011;10682;50.874;3.656;2023-02-01T06:28:31;29.83;;;4.70;;
21046;SDS011;10682;50.874;3.656;2023-02-01T06:31:05;29.77;;;4.43;;
21046;SDS011;10682;50.874;3.656;2023-02-01T06:33:39;23.77;;;4.40;;
21046;SDS011;10682;50.874;3.656;2023-02-01T06:36:07;31.67;;;4.10;;
21046;SDS011;10682;50.874;3.656;2023-02-01T06:38:38;23.40;;;4.00;;
21046;SDS011;10682;50.874;3.656;2023-02-01T06:41:18;31.13;;;4.13;;
21046;SDS011;10682;50.874;3.656;2023-02-01T06:43:46;37.07;;;4.97;;
21046;SDS011;10682;50.874;3.656;2023-02-01T06:46:14;30.00;;;4.30;;
21046;SDS011;10682;50.874;3.656;2023-02-01T06:48:41;25.10;;;4.70;;
21046;SDS011;10682;50.874;3.656;2023-02-01T06:51:24;27.87;;;4.80;;
21046;SDS011;10682;50.874;3.656;2023-02-01T06:54:05;30.30;;;4.83;;
21046;SDS011;10682;50.874;3.656;2023-02-01T06:56:32;24.33;;;3.77;;
21046;SDS011;10682;50.874;3.656;2023-02-01T06:59:01;30.63;;;3.90;;
21046;SDS011;10682;50.874;3.656;2023-02-01T07:01:30;29.43;;;4.93;;
21046;SDS011;10682;50.874;3.656;2023-02-01T07:03:58;30.50;;;4.87;;
21046;SDS011;10682;50.874;3.656;2023-02-01T07:06:30;27.50;;;5.23;;
21046;SDS011;10682;50.874;3.656;2023-02-01T07:08:57;28.57;;;4.50;;
21046;SDS011;10682;50.874;3.656;2023-02-01T07:11:26;29.70;;;5.07;;
21046;SDS011;10682;50.874;3.656;2023-02-01T07:13:54;30.00;;;5.23;;
21046;SDS011;10682;50.874;3.656;2023-02-01T07:16:21;40.37;;;4.83;;
21046;SDS011;10682;50.874;3.656;2023-02-01T07:18:49;30.13;;;5.80;;
21046;SDS011;10682;50.874;3.656;2023-02-01T07:21:18;32.97;;;5.63;;
21046;SDS011;10682;50.874;3.656;2023-02-01T07:23:46;21.90;;;4.60;;
21046;SDS011;10682;50.874;3.656;2023-02-01T07:26:13;33.50;;;4.87;;
21046;SDS011;10682;50.874;3.656;2023-02-01T07:28:41;32.10;;;4.47;;
21046;SDS011;10682;50.874;3.656;2023-02-01T07:31:09;24.90;;;4.57;;
21046;SDS011;10682;50.874;3.656;2023-02-01T07:33:44;26.10;;;4.23;;
21046;SDS011;10682;50.874;3.656;2023-02-01T07:36:12;28.27;;;4.97;;
21046;SDS011;10682;50.874;3.656;2023-02-01T07:38:45;23.67;;;4.80;;
21046;SDS011;10682;50.874;3.656;2023-02-01T07:41:15;24.67;;;4.37;;
21046;SDS011;10682;50.874;3.656;2023-02-01T07:43:43;20.23;;;4.10;;
21046;SDS011;10682;50.874;3.656;2023-02-01T07:46:11;32.77;;;5.87;;
21046;SDS011;10682;50.874;3.656;2023-02-01T07:48:38;21.97;;;4.53;;
21046;SDS011;10682;50.874;3.656;2023-02-01T07:51:07;27.87;;;4.93;;
21046;SDS011;10682;50.874;3.656;2023-02-01T07:53:39;24.57;;;4.30;;
21046;SDS011;10682;50.874;3.656;2023-02-01T07:56:13;26.87;;;4.93;;
21046;SDS011;10682;50.874;3.656;2023-02-01T07:58:46;23.33;;;4.87;;
21046;SDS011;10682;50.874;3.656;2023-02-01T08:01:20;25.20;;;5.13;;
21046;SDS011;10682;50.874;3.656;2023-02-01T08:03:52;29.67;;;5.17;;
21046;SDS011;10682;50.874;3.656;2023-02-01T08:06:29;25.43;;;5.23;;
21046;SDS011;10682;50.874;3.656;2023-02-01T08:08:58;30.50;;;5.40;;
21046;SDS011;10682;50.874;3.656;2023-02-01T08:11:26;27.43;;;4.87;;
21046;SDS011;10682;50.874;3.656;2023-02-01T08:13:53;25.10;;;4.53;;
21046;SDS011;10682;50.874;3.656;2023-02-01T08:16:21;30.87;;;4.97;;
21046;SDS011;10682;50.874;3.656;2023-02-01T08:18:50;34.83;;;4.07;;
21046;SDS011;10682;50.874;3.656;2023-02-01T08:21:19;26.70;;;3.73;;
21046;SDS011;10682;50.874;3.656;2023-02-01T08:23:49;30.13;;;4.20;;
21046;SDS011;10682;50.874;3.656;2023-02-01T08:26:21;18.13;;;3.87;;
21046;SDS011;10682;50.874;3.656;2023-02-01T08:28:52;30.10;;;5.50;;
21046;SDS011;10682;50.874;3.656;2023-02-01T08:31:22;37.30;;;4.87;;
21046;SDS011;10682;50.874;3.656;2023-02-01T08:33:53;27.77;;;4.07;;
21046;SDS011;10682;50.874;3.656;2023-02-01T08:36:23;30.03;;;5.00;;
21046;SDS011;10682;50.874;3.656;2023-02-01T08:38:52;28.00;;;4.60;;
21046;SDS011;10682;50.874;3.656;2023-02-01T08:41:21;26.30;;;4.20;;
21046;SDS011;10682;50.874;3.656;2023-02-01T08:46:23;22.77;;;3.63;;
21046;SDS011;10682;50.874;3.656;2023-02-01T08:48:50;19.90;;;4.00;;
21046;SDS011;10682;50.874;3.656;2023-02-01T08:51:19;25.00;;;4.07;;
21046;SDS011;10682;50.874;3.656;2023-02-01T08:53:48;29.50;;;4.37;;
21046;SDS011;10682;50.874;3.656;2023-02-01T08:56:16;23.00;;;3.80;;
21046;SDS011;10682;50.874;3.656;2023-02-01T08:58:45;27.47;;;4.33;;
21046;SDS011;10682;50.874;3.656;2023-02-01T09:01:13;25.90;;;4.13;;
21046;SDS011;10682;50.874;3.656;2023-02-01T09:03:43;27.23;;;4.57;;
21046;SDS011;10682;50.874;3.656;2023-02-01T09:06:11;16.80;;;4.03;;
21046;SDS011;10682;50.874;3.656;2023-02-01T09:08:41;24.40;;;3.90;;
21046;SDS011;10682;50.874;3.656;2023-02-01T09:11:13;23.23;;;4.03;;
21046;SDS011;10682;50.874;3.656;2023-02-01T09:13:42;20.70;;;3.20;;
21046;SDS011;10682;50.874;3.656;2023-02-01T09:16:09;19.30;;;4.30;;
21046;SDS011;10682;50.874;3.656;2023-02-01T09:18:37;23.47;;;4.43;;
21046;SDS011;10682;50.874;3.656;2023-02-01T09:21:21;23.43;;;4.30;;
21046;SDS011;10682;50.874;3.656;2023-02-01T09:23:50;24.30;;;3.13;;
21046;SDS011;10682;50.874;3.656;2023-02-01T09:26:18;22.57;;;4.00;;
21046;SDS011;10682;50.874;3.656;2023-02-01T09:28:56;27.40;;;3.90;;
21046;SDS011;10682;50.874;3.656;2023-02-01T09:31:23;22.63;;;4.23;;
21046;SDS011;10682;50.874;3.656;2023-02-01T09:33:50;29.13;;;4.03;;
21046;SDS011;10682;50.874;3.656;2023-02-01T09:36:17;20.57;;;3.40;;
21046;SDS011;10682;50.874;3.656;2023-02-01T09:38:45;28.80;;;3.80;;
21046;SDS011;10682;50.874;3.656;2023-02-01T09:44:07;26.33;;;4.30;;
21046;SDS011;10682;50.874;3.656;2023-02-01T09:46:44;21.03;;;3.40;;
21046;SDS011;10682;50.874;3.656;2023-02-01T09:49:14;32.63;;;3.97;;
21046;SDS011;10682;50.874;3.656;2023-02-01T09:51:46;25.97;;;4.03;;
21046;SDS011;10682;50.874;3.656;2023-02-01T09:54:20;22.77;;;3.10;;
21046;SDS011;10682;50.874;3.656;2023-02-01T09:56:53;20.73;;;3.57;;
21046;SDS011;10682;50.874;3.656;2023-02-01T09:59:41;18.67;;;3.57;;
21046;SDS011;10682;50.874;3.656;2023-02-01T10:02:32;29.60;;;3.43;;
21046;SDS011;10682;50.874;3.656;2023-02-01T10:05:05;19.27;;;4.03;;
21046;SDS011;10682;50.874;3.656;2023-02-01T10:07:48;25.30;;;3.00;;
21046;SDS011;10682;50.874;3.656;2023-02-01T10:10:36;17.90;;;3.03;;
21046;SDS011;10682;50.874;3.656;2023-02-01T10:19:30;22.17;;;3.10;;
21046;SDS011;10682;50.874;3.656;2023-02-01T10:22:41;23.00;;;2.77;;
21046;SDS011;10682;50.874;3.656;2023-02-01T10:25:34;14.70;;;3.60;;
21046;SDS011;10682;50.874;3.656;2023-02-01T10:28:22;21.93;;;2.83;;
21046;SDS011;10682;50.874;3.656;2023-02-01T10:30:52;17.47;;;3.03;;
21046;SDS011;10682;50.874;3.656;2023-02-01T10:33:24;18.73;;;2.97;;
21046;SDS011;10682;50.874;3.656;2023-02-01T10:36:16;20.00;;;2.93;;
21046;SDS011;10682;50.874;3.656;2023-02-01T10:38:51;20.67;;;3.10;;
21046;SDS011;10682;50.874;3.656;2023-02-01T10:41:21;21.53;;;3.07;;
21046;SDS011;10682;50.874;3.656;2023-02-01T10:43:54;19.73;;;3.13;;
21046;SDS011;10682;50.874;3.656;2023-02-01T10:46:23;17.13;;;3.10;;
21046;SDS011;10682;50.874;3.656;2023-02-01T10:48:52;21.73;;;3.13;;
21046;SDS011;10682;50.874;3.656;2023-02-01T10:51:24;19.00;;;3.10;;
21046;SDS011;10682;50.874;3.656;2023-02-01T10:54:31;11.13;;;2.43;;
21046;SDS011;10682;50.874;3.656;2023-02-01T10:57:01;24.17;;;3.40;;
21046;SDS011;10682;50.874;3.656;2023-02-01T10:59:29;23.70;;;3.40;;
21046;SDS011;10682;50.874;3.656;2023-02-01T11:02:05;20.97;;;2.40;;
21046;SDS011;10682;50.874;3.656;2023-02-01T11:05:05;23.67;;;2.60;;
21046;SDS011;10682;50.874;3.656;2023-02-01T11:07:46;14.87;;;2.53;;
21046;SDS011;10682;50.874;3.656;2023-02-01T11:10:40;18.47;;;3.17;;
21046;SDS011;10682;50.874;3.656;2023-02-01T11:13:14;19.13;;;2.83;;
21046;SDS011;10682;50.874;3.656;2023-02-01T11:15:44;19.23;;;2.70;;
21046;SDS011;10682;50.874;3.656;2023-02-01T11:18:17;14.60;;;2.70;;
21046;SDS011;10682;50.874;3.656;2023-02-01T11:20:47;19.53;;;2.90;;
21046;SDS011;10682;50.874;3.656;2023-02-01T11:23:16;21.40;;;3.27;;
21046;SDS011;10682;50.874;3.656;2023-02-01T11:28:54;16.10;;;2.53;;
21046;SDS011;10682;50.874;3.656;2023-02-01T11:31:23;17.33;;;2.77;;
21046;SDS011;10682;50.874;3.656;2023-02-01T11:33:58;16.57;;;2.70;;
21046;SDS011;10682;50.874;3.656;2023-02-01T11:36:39;17.33;;;2.47;;
21046;SDS011;10682;50.874;3.656;2023-02-01T11:39:08;19.30;;;3.00;;
21046;SDS011;10682;50.874;3.656;2023-02-01T11:45:07;12.10;;;2.57;;
21046;SDS011;10682;50.874;3.656;2023-02-01T11:47:55;10.67;;;2.43;;
21046;SDS011;10682;50.874;3.656;2023-02-01T11:50:34;14.83;;;2.40;;
21046;SDS011;10682;50.874;3.656;2023-02-01T11:53:25;13.03;;;2.53;;
21046;SDS011;10682;50.874;3.656;2023-02-01T11:56:36;15.27;;;2.53;;
21046;SDS011;10682;50.874;3.656;2023-02-01T12:05:37;21.17;;;2.33;;
21046;SDS011;10682;50.874;3.656;2023-02-01T12:23:01;14.33;;;2.60;;
21046;SDS011;10682;50.874;3.656;2023-02-01T12:37:58;14.63;;;2.20;;
21046;SDS011;10682;50.874;3.656;2023-02-01T12:44:00;9.13;;;2.03;;
21046;SDS011;10682;50.874;3.656;2023-02-01T12:46:39;9.90;;;1.90;;
21046;SDS011;10682;50.874;3.656;2023-02-01T12:49:17;13.20;;;1.70;;
21046;SDS011;10682;50.874;3.656;2023-02-01T12:52:00;10.40;;;2.27;;
21046;SDS011;10682;50.874;3.656;2023-02-01T12:54:37;10.20;;;2.00;;
21046;SDS011;10682;50.874;3.656;2023-02-01T12:57:15;15.40;;;3.00;;
21046;SDS011;10682;50.874;3.656;2023-02-01T12:59:59;16.83;;;2.20;;
21046;SDS011;10682;50.874;3.656;2023-02-01T13:02:41;13.47;;;2.10;;
21046;SDS011;10682;50.874;3.656;2023-02-01T13:05:29;13.73;;;2.57;;
21046;SDS011;10682;50.874;3.656;2023-02-01T13:08:14;16.50;;;2.30;;
21046;SDS011;10682;50.874;3.656;2023-02-01T13:10:57;11.90;;;2.50;;
21046;SDS011;10682;50.874;3.656;2023-02-01T13:16:43;15.20;;;3.10;;
21046;SDS011;10682;50.874;3.656;2023-02-01T13:19:19;12.90;;;2.67;;
21046;SDS011;10682;50.874;3.656;2023-02-01T13:21:58;10.33;;;1.80;;
21046;SDS011;10682;50.874;3.656;2023-02-01T13:24:42;11.47;;;2.27;;
21046;SDS011;10682;50.874;3.656;2023-02-01T13:27:15;11.37;;;2.13;;
21046;SDS011;10682;50.874;3.656;2023-02-01T13:29:49;16.47;;;1.97;;
21046;SDS011;10682;50.874;3.656;2023-02-01T13:32:46;8.00;;;1.73;;
21046;SDS011;10682;50.874;3.656;2023-02-01T13:35:46;13.33;;;2.37;;
21046;SDS011;10682;50.874;3.656;2023-02-01T13:42:05;11.30;;;2.63;;
21046;SDS011;10682;50.874;3.656;2023-02-01T13:44:42;8.37;;;1.73;;
21046;SDS011;10682;50.874;3.656;2023-02-01T13:47:32;10.23;;;2.07;;
21046;SDS011;10682;50.874;3.656;2023-02-01T13:50:22;8.87;;;1.73;;
21046;SDS011;10682;50.874;3.656;2023-02-01T13:53:02;12.37;;;1.93;;
21046;SDS011;10682;50.874;3.656;2023-02-01T13:55:45;16.07;;;2.00;;
21046;SDS011;10682;50.874;3.656;2023-02-01T13:58:33;13.63;;;2.40;;
21046;SDS011;10682;50.874;3.656;2023-02-01T14:06:51;11.57;;;1.93;;
21046;SDS011;10682;50.874;3.656;2023-02-01T14:09:34;11.70;;;2.40;;
21046;SDS011;10682;50.874;3.656;2023-02-01T14:15:38;14.77;;;3.23;;
21046;SDS011;10682;50.874;3.656;2023-02-01T14:18:48;15.00;;;2.50;;
21046;SDS011;10682;50.874;3.656;2023-02-01T14:24:04;18.10;;;2.47;;
21046;SDS011;10682;50.874;3.656;2023-02-01T14:26:54;13.57;;;3.03;;
21046;SDS011;10682;50.874;3.656;2023-02-01T14:29:32;15.13;;;2.60;;
21046;SDS011;10682;50.874;3.656;2023-02-01T14:55:57;18.57;;;2.97;;
21046;SDS011;10682;50.874;3.656;2023-02-01T14:58:40;17.20;;;2.40;;
21046;SDS011;10682;50.874;3.656;2023-02-01T15:04:11;21.80;;;2.87;;
21046;SDS011;10682;50.874;3.656;2023-02-01T15:06:48;21.57;;;2.87;;
21046;SDS011;10682;50.874;3.656;2023-02-01T15:12:02;24.23;;;3.50;;
21046;SDS011;10682;50.874;3.656;2023-02-01T15:14:40;18.37;;;2.53;;
21046;SDS011;10682;50.874;3.656;2023-02-01T15:17:30;25.50;;;4.77;;
21046;SDS011;10682;50.874;3.656;2023-02-01T15:20:01;16.03;;;3.13;;
21046;SDS011;10682;50.874;3.656;2023-02-01T15:22:55;13.23;;;2.77;;
21046;SDS011;10682;50.874;3.656;2023-02-01T15:25:26;24.60;;;3.57;;
21046;SDS011;10682;50.874;3.656;2023-02-01T15:27:59;18.90;;;3.77;;
21046;SDS011;10682;50.874;3.656;2023-02-01T15:30:27;25.67;;;4.30;;
21046;SDS011;10682;50.874;3.656;2023-02-01T15:33:08;16.73;;;3.10;;
21046;SDS011;10682;50.874;3.656;2023-02-01T15:40:58;15.00;;;2.90;;
21046;SDS011;10682;50.874;3.656;2023-02-01T15:43:44;20.93;;;3.77;;
21046;SDS011;10682;50.874;3.656;2023-02-01T15:46:35;17.10;;;3.27;;
21046;SDS011;10682;50.874;3.656;2023-02-01T15:49:14;20.20;;;3.20;;
21046;SDS011;10682;50.874;3.656;2023-02-01T15:52:00;25.13;;;3.70;;
21046;SDS011;10682;50.874;3.656;2023-02-01T15:54:30;14.67;;;3.13;;
21046;SDS011;10682;50.874;3.656;2023-02-01T15:57:10;26.60;;;3.57;;
21046;SDS011;10682;50.874;3.656;2023-02-01T15:59:41;24.00;;;3.23;;
21046;SDS011;10682;50.874;3.656;2023-02-01T16:05:27;14.87;;;3.37;;
21046;SDS011;10682;50.874;3.656;2023-02-01T16:08:12;24.70;;;3.40;;
21046;SDS011;10682;50.874;3.656;2023-02-01T16:10:48;21.77;;;2.80;;
21046;SDS011;10682;50.874;3.656;2023-02-01T16:13:19;21.60;;;4.40;;
21046;SDS011;10682;50.874;3.656;2023-02-01T16:15:47;21.90;;;3.80;;
21046;SDS011;10682;50.874;3.656;2023-02-01T16:18:15;25.17;;;3.43;;
21046;SDS011;10682;50.874;3.656;2023-02-01T16:20:44;24.97;;;3.80;;
21046;SDS011;10682;50.874;3.656;2023-02-01T16:23:13;21.17;;;4.10;;
21046;SDS011;10682;50.874;3.656;2023-02-01T16:25:40;30.17;;;4.63;;
21046;SDS011;10682;50.874;3.656;2023-02-01T16:28:08;22.83;;;3.87;;
21046;SDS011;10682;50.874;3.656;2023-02-01T16:30:35;27.53;;;3.90;;
21046;SDS011;10682;50.874;3.656;2023-02-01T16:33:03;25.90;;;3.90;;
21046;SDS011;10682;50.874;3.656;2023-02-01T16:35:33;24.10;;;4.10;;
21046;SDS011;10682;50.874;3.656;2023-02-01T16:38:07;25.27;;;3.70;;
21046;SDS011;10682;50.874;3.656;2023-02-01T16:40:39;28.00;;;3.70;;
21046;SDS011;10682;50.874;3.656;2023-02-01T16:43:22;21.13;;;3.43;;
21046;SDS011;10682;50.874;3.656;2023-02-01T16:45:52;23.63;;;3.53;;
21046;SDS011;10682;50.874;3.656;2023-02-01T16:48:23;26.50;;;3.97;;
21046;SDS011;10682;50.874;3.656;2023-02-01T16:50:57;24.37;;;3.50;;
21046;SDS011;10682;50.874;3.656;2023-02-01T16:53:30;30.73;;;5.50;;
21046;SDS011;10682;50.874;3.656;2023-02-01T16:56:29;20.93;;;5.27;;
21046;SDS011;10682;50.874;3.656;2023-02-01T16:58:58;36.23;;;4.53;;
21046;SDS011;10682;50.874;3.656;2023-02-01T17:01:26;29.43;;;4.70;;
21046;SDS011;10682;50.874;3.656;2023-02-01T17:03:53;20.77;;;4.13;;
21046;SDS011;10682;50.874;3.656;2023-02-01T17:06:21;20.43;;;4.13;;
21046;SDS011;10682;50.874;3.656;2023-02-01T17:08:52;22.93;;;4.20;;
21046;SDS011;10682;50.874;3.656;2023-02-01T17:11:24;23.17;;;4.87;;
21046;SDS011;10682;50.874;3.656;2023-02-01T17:13:52;30.53;;;4.47;;
21046;SDS011;10682;50.874;3.656;2023-02-01T17:16:29;32.30;;;4.53;;
21046;SDS011;10682;50.874;3.656;2023-02-01T17:19:09;27.57;;;4.60;;
21046;SDS011;10682;50.874;3.656;2023-02-01T17:21:43;26.73;;;5.27;;
21046;SDS011;10682;50.874;3.656;2023-02-01T17:24:15;21.53;;;4.07;;
21046;SDS011;10682;50.874;3.656;2023-02-01T17:26:44;30.50;;;4.57;;
21046;SDS011;10682;50.874;3.656;2023-02-01T17:29:12;27.87;;;5.07;;
21046;SDS011;10682;50.874;3.656;2023-02-01T17:31:40;27.73;;;4.37;;
21046;SDS011;10682;50.874;3.656;2023-02-01T17:34:10;25.77;;;4.17;;
21046;SDS011;10682;50.874;3.656;2023-02-01T17:36:41;25.30;;;4.40;;
21046;SDS011;10682;50.874;3.656;2023-02-01T17:39:09;21.70;;;5.33;;
21046;SDS011;10682;50.874;3.656;2023-02-01T17:41:36;28.87;;;4.67;;
21046;SDS011;10682;50.874;3.656;2023-02-01T17:44:03;25.70;;;4.30;;
21046;SDS011;10682;50.874;3.656;2023-02-01T17:46:31;21.03;;;4.07;;
21046;SDS011;10682;50.874;3.656;2023-02-01T17:48:58;26.23;;;4.57;;